Groton New London Airport


Codes: KGON/GON
Name: Groton New London Airport
City: Groton (New London)
Country: United States
Elevation: 9 ft.
Wikipedia:

Photos at Groton New London Airport


   Photos courtesy of SpottingLog. You can add your own sightings and photos by signing up for a free trial today.



No photos found.

Weather at Groton New London Airport


Time (UTC)DescriptionTempratureWindCloud coverageVisibilityPressureHumidity
26-Jun-2024 00:00Few Clouds26°C18 mph, SW16%10000m1011hPa53%
26-Jun-2024 03:00Broken Clouds23°C13 mph, SW56%10000m1010hPa67%
26-Jun-2024 06:00Broken Clouds21°C16 mph, SW72%10000m1009hPa71%
26-Jun-2024 09:00Overcast Clouds22°C18 mph, SW91%10000m1008hPa70%
26-Jun-2024 12:00Overcast Clouds22°C16 mph, SW96%10000m1008hPa76%
26-Jun-2024 15:00Overcast Clouds24°C11 mph, SW100%10000m1008hPa67%
26-Jun-2024 18:00Overcast Clouds26°C11 mph, SW100%10000m1007hPa64%
26-Jun-2024 21:00Overcast Clouds25°C16 mph, S90%10000m1006hPa72%
27-Jun-2024 00:00Broken Clouds22°C11 mph, S72%10000m1004hPa90%
27-Jun-2024 03:00Moderate Rain21°C16 mph, W100%10000m1006hPa95%
27-Jun-2024 06:00Light Rain19°C16 mph, S100%10000m1004hPa97%
27-Jun-2024 09:00Light Rain21°C20 mph, SW100%10000m1004hPa95%
27-Jun-2024 12:00Light Rain19°C9 mph, NW100%10000m1007hPa90%
27-Jun-2024 15:00Overcast Clouds23°C9 mph, NW100%10000m1008hPa64%
27-Jun-2024 18:00Broken Clouds24°C11 mph, SW84%10000m1008hPa62%
27-Jun-2024 21:00Few Clouds25°C9 mph, SW23%10000m1008hPa60%
28-Jun-2024 00:00Broken Clouds22°C7 mph, W63%10000m1010hPa73%
28-Jun-2024 03:00Broken Clouds20°C11 mph, NW78%10000m1013hPa58%
28-Jun-2024 06:00Scattered Clouds17°C11 mph, N44%10000m1015hPa61%
28-Jun-2024 09:00Clear Sky15°C11 mph, N7%10000m1017hPa61%
28-Jun-2024 12:00Few Clouds18°C11 mph, NE20%10000m1019hPa51%
28-Jun-2024 15:00Broken Clouds22°C7 mph, E65%10000m1020hPa41%
28-Jun-2024 18:00Broken Clouds22°C11 mph, SE57%10000m1020hPa45%
28-Jun-2024 21:00Broken Clouds21°C11 mph, S68%10000m1021hPa57%
29-Jun-2024 00:00Broken Clouds18°C7 mph, SE80%10000m1022hPa74%
29-Jun-2024 03:00Few Clouds17°C9 mph, SE23%10000m1023hPa77%
29-Jun-2024 06:00Broken Clouds18°C9 mph, SE61%10000m1023hPa78%
29-Jun-2024 09:00Overcast Clouds18°C9 mph, SE100%10000m1022hPa82%
29-Jun-2024 12:00Overcast Clouds20°C11 mph, S100%10000m1023hPa86%
29-Jun-2024 15:00Overcast Clouds21°C13 mph, S100%10000m1022hPa89%
29-Jun-2024 18:00Light Rain23°C16 mph, S100%10000m1021hPa82%
29-Jun-2024 21:00Overcast Clouds23°C16 mph, S95%10000m1019hPa81%
30-Jun-2024 00:00Light Rain21°C13 mph, S97%10000m1018hPa92%
30-Jun-2024 03:00Light Rain22°C13 mph, SW99%10000m1017hPa95%
30-Jun-2024 06:00Light Rain22°C16 mph, SW100%10000m1016hPa96%
30-Jun-2024 09:00Light Rain22°C16 mph, SW100%10000m1014hPa97%
30-Jun-2024 12:00Light Rain22°C16 mph, SW100%3919m1014hPa98%
30-Jun-2024 15:00Light Rain22°C16 mph, SW100%1734m1013hPa98%
30-Jun-2024 18:00Moderate Rain21°C11 mph, SW100%410m1012hPa99%
30-Jun-2024 21:00Moderate Rain22°C11 mph, SW100%5714m1013hPa94%